Time;durP1;ratioP1;P1;durP2;ratioP2;P2;SDS_P1;SDS_P2;PMS_P1;PMS_P2;Temp;Humidity;BMP_temperature;BMP_pressure;BME280_temperature;BME280_humidity;BME280_pressure;Samples;Min_cycle;Max_cycle;Signal;HPM_P1;HPM_P2
2022/12/28 00:01:41;;;;;;;10.50;4.57;;;7.40;99.90;;;;;;5074369;28;20246;-78
2022/12/28 00:04:13;;;;;;;6.63;4.05;;;7.40;99.90;;;;;;5077878;28;20239;-79
2022/12/28 00:06:40;;;;;;;8.40;3.90;;;7.40;99.90;;;;;;5074878;28;20223;-78
2022/12/28 00:09:09;;;;;;;6.93;4.40;;;7.30;99.90;;;;;;5073973;28;20297;-78
2022/12/28 00:11:39;;;;;;;6.10;3.40;;;7.40;99.90;;;;;;5073230;28;20460;-76
2022/12/28 00:14:06;;;;;;;5.78;3.08;;;7.40;99.90;;;;;;5062522;28;20243;-77
2022/12/28 00:16:38;;;;;;;8.63;4.55;;;7.40;99.90;;;;;;5072977;28;20281;-77
2022/12/28 00:19:10;;;;;;;6.85;4.20;;;7.40;99.90;;;;;;5070593;28;20294;-76
2022/12/28 00:21:37;;;;;;;9.40;5.10;;;7.40;99.90;;;;;;5072369;28;20252;-77
2022/12/28 00:24:05;;;;;;;6.28;3.80;;;7.40;99.90;;;;;;5071875;28;20247;-76
2022/12/28 00:26:34;;;;;;;4.03;3.42;;;7.40;99.90;;;;;;5071984;28;20277;-76
2022/12/28 00:29:02;;;;;;;8.50;4.88;;;7.40;99.90;;;;;;5071348;28;22565;-78
2022/12/28 00:31:29;;;;;;;12.85;4.78;;;7.50;99.90;;;;;;5072091;28;20717;-76
2022/12/28 00:33:56;;;;;;;5.03;3.30;;;7.40;99.90;;;;;;5061436;28;20311;-76
2022/12/28 00:36:25;;;;;;;4.90;2.60;;;7.50;99.90;;;;;;5072228;28;20235;-79
2022/12/28 00:38:52;;;;;;;3.42;3.15;;;7.50;99.90;;;;;;5071822;28;20310;-79
2022/12/28 00:41:19;;;;;;;4.72;2.90;;;7.60;99.90;;;;;;5071457;28;20228;-77
2022/12/28 00:43:46;;;;;;;5.22;3.35;;;7.60;99.90;;;;;;5071713;28;20307;-77
2022/12/28 00:46:17;;;;;;;5.32;4.10;;;7.60;99.90;;;;;;5058261;28;20220;-76
2022/12/28 00:48:45;;;;;;;8.55;2.85;;;7.60;99.90;;;;;;5063445;28;20307;-79
2022/12/28 00:51:14;;;;;;;4.78;3.75;;;7.60;99.90;;;;;;5064786;28;20228;-79
2022/12/28 00:53:43;;;;;;;6.93;4.72;;;7.60;99.90;;;;;;5065379;28;20226;-79
2022/12/28 00:56:13;;;;;;;4.30;3.60;;;7.60;99.90;;;;;;5072173;28;20299;-78
2022/12/28 00:58:40;;;;;;;4.10;3.53;;;7.60;99.90;;;;;;5059381;28;20250;-79
2022/12/28 01:01:12;;;;;;;3.20;2.90;;;7.50;99.90;;;;;;5071447;28;20232;-80
2022/12/28 01:03:39;;;;;;;4.75;3.28;;;7.60;99.90;;;;;;5065319;28;20657;-79
2022/12/28 01:06:06;;;;;;;8.20;4.15;;;7.60;99.90;;;;;;5071725;28;20307;-79
2022/12/28 01:08:38;;;;;;;4.40;3.33;;;7.60;99.90;;;;;;5064232;28;20224;-80
2022/12/28 01:11:15;;;;;;;5.47;2.08;;;7.60;99.90;;;;;;5065880;28;20315;-80
2022/12/28 01:13:42;;;;;;;11.68;3.25;;;7.60;99.90;;;;;;5070248;28;20711;-80
2022/12/28 01:16:17;;;;;;;4.82;3.65;;;7.60;99.90;;;;;;5050351;28;20224;-79
2022/12/28 01:18:46;;;;;;;5.35;4.05;;;7.60;99.90;;;;;;5063230;28;20224;-77
2022/12/28 01:21:17;;;;;;;6.18;4.53;;;7.60;99.90;;;;;;5076481;28;20246;-80
2022/12/28 01:23:47;;;;;;;5.63;3.65;;;7.70;99.90;;;;;;5073525;28;20220;-80
2022/12/28 01:26:17;;;;;;;14.98;9.30;;;7.70;99.90;;;;;;5071020;28;20231;-78
2022/12/28 01:28:52;;;;;;;3.10;2.80;;;7.70;99.90;;;;;;5081737;28;20216;-79
2022/12/28 01:31:22;;;;;;;3.83;2.80;;;7.70;99.90;;;;;;5081014;28;20307;-79
2022/12/28 01:33:56;;;;;;;7.05;4.13;;;7.70;99.90;;;;;;5068807;28;20235;-78
2022/12/28 01:36:25;;;;;;;3.22;2.65;;;7.80;99.90;;;;;;5069761;28;20228;-77
2022/12/28 01:38:54;;;;;;;5.00;3.75;;;7.80;99.90;;;;;;5073849;28;20232;-79
2022/12/28 01:41:23;;;;;;;8.30;5.18;;;7.80;99.90;;;;;;5063653;28;20293;-79
2022/12/28 01:44:31;;;;;;;6.47;3.63;;;7.80;99.90;;;;;;5072544;28;20295;-76
2022/12/28 01:47:08;;;;;;;10.18;5.35;;;7.90;99.90;;;;;;5069446;28;20224;-79
2022/12/28 01:49:39;;;;;;;3.22;2.65;;;7.90;99.90;;;;;;5068175;28;20298;-79
2022/12/28 01:52:10;;;;;;;3.53;2.78;;;7.90;99.90;;;;;;5072593;28;20220;-77
2022/12/28 01:54:44;;;;;;;5.90;2.60;;;7.80;99.90;;;;;;5067114;28;20286;-77
2022/12/28 01:57:17;;;;;;;4.85;3.00;;;7.90;99.90;;;;;;5066382;28;20237;-77
2022/12/28 01:59:50;;;;;;;4.25;3.42;;;7.80;99.90;;;;;;5071068;28;20243;-76
2022/12/28 02:02:21;;;;;;;3.67;2.55;;;7.80;99.90;;;;;;5070062;28;20299;-77
2022/12/28 02:04:49;;;;;;;2.83;2.63;;;7.80;99.90;;;;;;5074803;28;20614;-79
2022/12/28 02:07:30;;;;;;;4.60;3.05;;;7.70;99.90;;;;;;5073805;28;20224;-79
2022/12/28 02:09:57;;;;;;;5.53;3.00;;;7.80;99.90;;;;;;5074077;28;20326;-79
2022/12/28 02:12:26;;;;;;;2.88;2.67;;;7.70;99.90;;;;;;5068457;28;20230;-80
2022/12/28 02:14:53;;;;;;;4.35;3.13;;;7.70;99.90;;;;;;5069886;28;20220;-79
2022/12/28 02:17:20;;;;;;;6.20;4.03;;;7.70;99.90;;;;;;5064985;28;20295;-79
2022/12/28 02:19:49;;;;;;;3.28;3.03;;;7.70;99.90;;;;;;5068380;28;20249;-79
2022/12/28 02:22:39;;;;;;;6.30;3.15;;;7.60;99.90;;;;;;5070883;28;20335;-79
2022/12/28 02:25:26;;;;;;;3.95;2.55;;;7.60;99.90;;;;;;5069591;28;20230;-79
2022/12/28 02:28:06;;;;;;;4.32;3.45;;;7.60;99.90;;;;;;5072827;28;20256;-79
2022/12/28 02:30:43;;;;;;;3.35;2.45;;;7.50;99.90;;;;;;5074572;28;20224;-79
2022/12/28 02:33:20;;;;;;;4.05;2.30;;;7.50;99.90;;;;;;5071252;28;20783;-80
2022/12/28 02:35:54;;;;;;;6.07;2.90;;;7.50;99.90;;;;;;5073174;28;20230;-78
2022/12/28 02:38:26;;;;;;;7.95;3.22;;;7.50;99.90;;;;;;5074318;28;20315;-79
2022/12/28 02:41:12;;;;;;;3.53;3.10;;;7.50;99.90;;;;;;5073227;28;20220;-77
2022/12/28 02:43:40;;;;;;;4.68;3.03;;;7.50;99.90;;;;;;5074638;28;20227;-78
2022/12/28 02:52:20;;;;;;;2.50;2.30;;;7.40;99.90;;;;;;5074106;28;20234;-77
2022/12/28 02:58:36;;;;;;;5.80;3.75;;;7.40;99.90;;;;;;5070043;28;20234;-78
2022/12/28 03:01:22;;;;;;;3.78;2.78;;;7.40;99.90;;;;;;5067383;28;20224;-77
2022/12/28 03:04:05;;;;;;;6.35;4.07;;;7.30;99.90;;;;;;5073725;28;20246;-76
2022/12/28 03:09:31;;;;;;;8.38;3.95;;;7.30;99.90;;;;;;5073583;28;20358;-76
2022/12/28 03:12:04;;;;;;;5.10;3.40;;;7.30;99.90;;;;;;5073970;28;20216;-76
2022/12/28 03:14:37;;;;;;;3.83;3.50;;;7.30;99.90;;;;;;5073800;28;20583;-76
2022/12/28 03:31:15;;;;;;;6.88;3.50;;;7.20;99.90;;;;;;5053674;28;20290;-76
2022/12/28 03:33:46;;;;;;;3.90;3.53;;;7.20;99.90;;;;;;5052822;28;20259;-77
2022/12/28 03:36:25;;;;;;;4.95;3.72;;;7.20;99.90;;;;;;5053457;28;20252;-79
2022/12/28 03:39:03;;;;;;;3.78;3.05;;;7.20;99.90;;;;;;5052676;28;20303;-76
2022/12/28 03:41:38;;;;;;;5.72;3.80;;;7.20;99.90;;;;;;5042273;28;20224;-76
2022/12/28 03:44:12;;;;;;;4.32;3.50;;;7.10;99.90;;;;;;5051949;28;20217;-76
2022/12/28 03:46:51;;;;;;;4.32;3.10;;;7.20;99.90;;;;;;5052171;28;20666;-77
2022/12/28 03:49:27;;;;;;;5.15;3.35;;;7.20;99.90;;;;;;5052664;28;20248;-76
2022/12/28 03:51:56;;;;;;;3.10;2.90;;;7.20;99.90;;;;;;5051651;28;20240;-76
2022/12/28 03:54:25;;;;;;;6.85;3.00;;;7.20;99.90;;;;;;5053227;28;20347;-76
2022/12/28 03:56:52;;;;;;;7.32;3.20;;;7.20;99.90;;;;;;5042264;28;20228;-77
2022/12/28 03:59:26;;;;;;;9.10;3.00;;;7.20;99.90;;;;;;5053795;28;20255;-78
2022/12/28 04:01:53;;;;;;;7.10;4.47;;;7.10;99.90;;;;;;5044287;28;20308;-78
2022/12/28 04:04:24;;;;;;;4.47;3.65;;;7.10;99.90;;;;;;5046014;28;20217;-78
2022/12/28 04:06:53;;;;;;;2.78;2.45;;;7.10;99.90;;;;;;5055080;28;20557;-76
2022/12/28 04:09:23;;;;;;;5.25;3.20;;;7.10;99.90;;;;;;5053574;28;20232;-76
2022/12/28 04:11:50;;;;;;;5.07;2.95;;;7.10;99.90;;;;;;5041730;28;20642;-76
2022/12/28 04:14:21;;;;;;;4.40;3.13;;;7.10;99.90;;;;;;5053989;28;20224;-76
2022/12/28 04:16:48;;;;;;;3.10;2.83;;;7.10;99.90;;;;;;5052967;28;20221;-76
2022/12/28 04:19:15;;;;;;;5.18;3.35;;;7.10;99.90;;;;;;5052309;28;20267;-76
2022/12/28 04:21:44;;;;;;;6.22;4.70;;;7.10;99.90;;;;;;5042391;28;20271;-76
2022/12/28 04:24:11;;;;;;;8.98;6.13;;;7.10;99.90;;;;;;5051146;28;20697;-76
2022/12/28 04:26:38;;;;;;;4.55;3.70;;;7.10;99.90;;;;;;5052415;28;20217;-76
2022/12/28 04:29:05;;;;;;;4.82;3.10;;;7.10;99.90;;;;;;5041652;28;20315;-76
2022/12/28 04:31:33;;;;;;;4.57;3.00;;;7.00;99.90;;;;;;5050506;28;20714;-76
2022/12/28 04:34:15;;;;;;;12.88;3.85;;;7.00;99.90;;;;;;5050111;28;20247;-76
2022/12/28 04:36:43;;;;;;;6.63;2.97;;;7.00;99.90;;;;;;5051155;28;20227;-76
2022/12/28 04:39:11;;;;;;;3.75;3.45;;;7.00;99.90;;;;;;5050838;28;20524;-77
2022/12/28 04:41:38;;;;;;;6.43;2.55;;;7.00;99.90;;;;;;5039903;28;20233;-77
2022/12/28 04:44:08;;;;;;;4.88;3.00;;;7.00;99.90;;;;;;5050238;28;20255;-77
2022/12/28 04:46:35;;;;;;;3.20;2.45;;;7.00;99.90;;;;;;5051330;28;20282;-77
2022/12/28 04:49:10;;;;;;;3.95;2.85;;;7.00;99.90;;;;;;5040944;28;20248;-77
2022/12/28 04:51:37;;;;;;;4.15;2.50;;;7.00;99.90;;;;;;5052096;28;20494;-77
2022/12/28 04:54:05;;;;;;;4.03;2.65;;;7.00;99.90;;;;;;5051102;28;20283;-76
2022/12/28 04:56:32;;;;;;;5.55;3.53;;;7.00;99.90;;;;;;5040047;28;20224;-77
2022/12/28 04:59:00;;;;;;;4.57;3.95;;;7.00;99.90;;;;;;5052358;28;20228;-77
2022/12/28 05:01:28;;;;;;;6.78;3.92;;;7.00;99.90;;;;;;5052145;28;20306;-77
2022/12/28 05:03:55;;;;;;;9.57;3.88;;;7.00;99.90;;;;;;5043827;28;20227;-77
2022/12/28 05:06:24;;;;;;;2.72;2.53;;;7.00;99.90;;;;;;5055578;28;20256;-77
2022/12/28 05:08:53;;;;;;;3.35;2.40;;;6.90;99.90;;;;;;5056654;28;20244;-77
2022/12/28 05:11:24;;;;;;;5.20;2.95;;;6.90;99.90;;;;;;5057767;28;20228;-77
2022/12/28 05:13:51;;;;;;;3.85;2.20;;;7.00;99.90;;;;;;5062603;28;20216;-76
2022/12/28 05:16:21;;;;;;;4.10;2.40;;;6.90;99.90;;;;;;5062937;28;20248;-78
2022/12/28 05:18:48;;;;;;;3.25;2.25;;;6.90;99.90;;;;;;5058846;28;20263;-77
2022/12/28 05:21:19;;;;;;;7.30;2.92;;;6.90;99.90;;;;;;5056930;28;20225;-77
2022/12/28 05:23:49;;;;;;;4.05;2.50;;;6.90;99.90;;;;;;5048530;28;20334;-76
2022/12/28 05:26:20;;;;;;;3.03;2.15;;;6.90;99.90;;;;;;5055108;28;20294;-77
2022/12/28 05:28:49;;;;;;;5.13;2.10;;;6.90;99.90;;;;;;5055251;28;20666;-76
2022/12/28 05:31:19;;;;;;;4.53;2.30;;;6.90;99.90;;;;;;5044556;28;20228;-77
2022/12/28 05:33:47;;;;;;;4.22;2.55;;;6.90;99.90;;;;;;5055900;28;20578;-77
2022/12/28 05:36:16;;;;;;;4.13;3.15;;;6.90;99.90;;;;;;5055376;28;20225;-78
2022/12/28 05:38:47;;;;;;;2.92;2.38;;;6.90;99.90;;;;;;5056151;28;20343;-77
2022/12/28 05:41:17;;;;;;;5.10;2.40;;;7.00;99.90;;;;;;5055629;28;20283;-77
2022/12/28 05:43:52;;;;;;;2.85;1.90;;;7.00;99.90;;;;;;5047226;28;20224;-77
2022/12/28 05:46:24;;;;;;;10.25;3.92;;;6.90;99.90;;;;;;5054842;28;20224;-78
2022/12/28 05:48:51;;;;;;;3.35;2.35;;;6.90;99.90;;;;;;5055512;28;20239;-77
2022/12/28 05:51:30;;;;;;;2.28;1.92;;;6.90;99.90;;;;;;5049744;28;20233;-79
2022/12/28 05:53:58;;;;;;;3.03;2.30;;;6.80;99.90;;;;;;5044960;28;20282;-78
2022/12/28 05:56:28;;;;;;;4.57;1.95;;;6.90;99.90;;;;;;5046826;28;20319;-78
2022/12/28 05:58:58;;;;;;;6.22;2.33;;;6.90;99.90;;;;;;5054073;28;20537;-78
2022/12/28 06:01:27;;;;;;;2.83;2.25;;;6.90;99.90;;;;;;5054280;28;20322;-77
2022/12/28 06:04:05;;;;;;;4.40;2.42;;;6.80;99.90;;;;;;5054574;28;20251;-77
2022/12/28 06:06:35;;;;;;;3.38;1.75;;;6.80;99.90;;;;;;5054685;28;20224;-77
2022/12/28 06:09:05;;;;;;;2.45;2.10;;;6.70;99.90;;;;;;5046800;28;20240;-77
2022/12/28 06:11:34;;;;;;;2.75;1.80;;;6.80;99.90;;;;;;5042767;28;20220;-78
2022/12/28 06:14:04;;;;;;;4.93;2.20;;;6.80;99.90;;;;;;5053217;28;20252;-78
2022/12/28 06:16:33;;;;;;;4.45;2.20;;;6.80;99.90;;;;;;5054228;28;20312;-77
2022/12/28 06:19:06;;;;;;;3.90;2.40;;;6.80;99.90;;;;;;5054329;28;20255;-77
2022/12/28 06:21:39;;;;;;;3.78;2.33;;;6.80;99.90;;;;;;5055300;28;20224;-77
2022/12/28 06:24:08;;;;;;;6.95;1.90;;;6.80;99.90;;;;;;5054926;28;20236;-77
2022/12/28 06:26:36;;;;;;;4.30;1.83;;;6.80;99.90;;;;;;5054640;28;20670;-77
2022/12/28 06:29:08;;;;;;;3.22;1.83;;;6.80;99.90;;;;;;5054152;28;20286;-78
2022/12/28 06:31:39;;;;;;;2.00;1.80;;;6.80;99.90;;;;;;5054700;28;20248;-77
2022/12/28 06:34:11;;;;;;;5.10;2.17;;;6.90;99.90;;;;;;5035532;28;20246;-76
2022/12/28 06:36:40;;;;;;;2.95;2.00;;;6.90;99.90;;;;;;5053941;28;20224;-77
2022/12/28 06:39:12;;;;;;;2.70;1.92;;;6.90;99.90;;;;;;5053694;28;20237;-76
2022/12/28 06:41:40;;;;;;;6.18;2.30;;;6.90;99.90;;;;;;5054692;28;20221;-77
2022/12/28 06:44:09;;;;;;;2.63;1.90;;;7.00;99.90;;;;;;5043309;28;20516;-77
2022/12/28 06:46:37;;;;;;;7.85;2.20;;;7.00;99.90;;;;;;5053977;28;20220;-78
2022/12/28 06:49:04;;;;;;;4.07;2.50;;;7.00;99.90;;;;;;5053336;28;20256;-78
2022/12/28 06:51:35;;;;;;;4.68;2.22;;;7.00;99.90;;;;;;5053943;28;20255;-77
2022/12/28 06:54:04;;;;;;;4.82;2.58;;;7.10;99.90;;;;;;5053878;28;20243;-77
2022/12/28 06:56:37;;;;;;;3.72;2.17;;;7.10;99.90;;;;;;5053738;28;20331;-77
2022/12/28 06:59:05;;;;;;;2.08;1.75;;;7.10;99.90;;;;;;5053068;28;20641;-77
2022/12/28 07:01:37;;;;;;;6.50;2.47;;;7.10;99.90;;;;;;5045652;28;20221;-77
2022/12/28 07:04:09;;;;;;;4.43;2.13;;;7.00;99.90;;;;;;5052847;28;20229;-77
2022/12/28 07:06:43;;;;;;;4.65;2.25;;;7.00;99.90;;;;;;5054115;28;20686;-77
2022/12/28 07:09:13;;;;;;;1.73;1.63;;;7.00;99.90;;;;;;5053025;28;20698;-77
2022/12/28 07:11:43;;;;;;;5.63;2.85;;;7.00;99.90;;;;;;5054199;28;20217;-77
2022/12/28 07:14:14;;;;;;;5.00;2.05;;;7.00;99.90;;;;;;5043610;28;20244;-78
2022/12/28 07:16:43;;;;;;;4.85;2.55;;;7.00;99.90;;;;;;5053023;28;20316;-77
2022/12/28 07:19:20;;;;;;;7.40;1.90;;;7.00;99.90;;;;;;5043012;28;20283;-77
2022/12/28 07:21:50;;;;;;;2.63;2.35;;;7.00;99.90;;;;;;5056718;28;20229;-77
2022/12/28 07:24:18;;;;;;;2.72;2.00;;;7.00;99.90;;;;;;5048118;28;20232;-76
2022/12/28 07:26:45;;;;;;;4.50;2.40;;;7.00;99.90;;;;;;5059151;28;20244;-77
2022/12/28 07:29:12;;;;;;;4.18;2.33;;;7.00;99.90;;;;;;5058789;28;20273;-78
2022/12/28 07:31:45;;;;;;;2.85;2.45;;;7.00;99.90;;;;;;5054709;28;20619;-77
2022/12/28 07:34:18;;;;;;;2.45;2.25;;;7.00;99.90;;;;;;5045534;28;20225;-76
2022/12/28 07:36:45;;;;;;;3.17;2.20;;;7.00;99.90;;;;;;5053151;28;20225;-77
2022/12/28 07:39:13;;;;;;;4.00;2.70;;;7.00;99.90;;;;;;5044132;28;20228;-78
2022/12/28 07:41:42;;;;;;;4.82;2.72;;;7.00;99.90;;;;;;5053417;28;20232;-77
2022/12/28 07:44:09;;;;;;;4.55;3.92;;;7.10;99.90;;;;;;5053187;28;20669;-77
2022/12/28 07:46:37;;;;;;;2.00;1.83;;;7.00;99.90;;;;;;5053443;28;20321;-78
2022/12/28 07:49:07;;;;;;;3.58;2.90;;;7.00;99.90;;;;;;5052989;28;20316;-78
2022/12/28 07:51:36;;;;;;;7.28;2.78;;;7.10;99.90;;;;;;5052402;28;20240;-78
2022/12/28 07:54:03;;;;;;;2.83;2.38;;;7.10;99.90;;;;;;5053591;28;20228;-77
2022/12/28 07:56:31;;;;;;;3.63;2.53;;;7.10;99.90;;;;;;5052469;28;20286;-77
2022/12/28 07:59:00;;;;;;;5.10;3.13;;;7.10;99.90;;;;;;5053065;28;20324;-78
2022/12/28 08:01:29;;;;;;;4.65;2.40;;;7.20;99.90;;;;;;5053097;28;20244;-78
2022/12/28 08:03:57;;;;;;;14.73;3.95;;;7.20;99.90;;;;;;5052737;28;20667;-78
2022/12/28 08:06:28;;;;;;;4.95;2.13;;;7.20;99.90;;;;;;5041070;28;20248;-78
2022/12/28 08:08:58;;;;;;;5.07;2.95;;;7.20;99.90;;;;;;5042225;28;20232;-78
2022/12/28 08:11:29;;;;;;;12.30;2.95;;;7.20;99.90;;;;;;5051730;28;20239;-78
2022/12/28 08:13:57;;;;;;;6.53;2.70;;;7.20;99.90;;;;;;5053017;28;20227;-77
2022/12/28 08:16:26;;;;;;;5.22;3.67;;;7.30;99.90;;;;;;5052825;28;20229;-78
2022/12/28 08:18:54;;;;;;;5.57;2.67;;;7.30;99.90;;;;;;5052586;28;20216;-78
2022/12/28 08:21:23;;;;;;;4.38;3.30;;;7.30;99.90;;;;;;5052830;28;20228;-78
2022/12/28 08:23:52;;;;;;;7.72;2.75;;;7.30;99.90;;;;;;5052322;28;20217;-78
2022/12/28 08:26:22;;;;;;;10.82;6.28;;;7.40;99.90;;;;;;5052739;28;20310;-77
2022/12/28 08:28:52;;;;;;;4.35;3.95;;;7.30;99.90;;;;;;5052095;28;20248;-77
2022/12/28 08:31:21;;;;;;;4.22;3.83;;;7.20;99.90;;;;;;5052823;28;20259;-77
2022/12/28 08:33:48;;;;;;;5.85;3.80;;;7.20;99.90;;;;;;5052736;28;20321;-78
2022/12/28 08:36:18;;;;;;;8.52;6.18;;;7.30;99.90;;;;;;5052435;28;20224;-76
2022/12/28 08:38:46;;;;;;;8.45;6.40;;;7.40;99.90;;;;;;5051265;28;20290;-77
2022/12/28 08:41:18;;;;;;;7.32;5.60;;;7.40;99.90;;;;;;5052638;28;20259;-78
2022/12/28 08:43:46;;;;;;;4.72;3.50;;;7.40;99.90;;;;;;5051720;28;20300;-77
2022/12/28 08:46:15;;;;;;;5.40;2.92;;;7.40;99.90;;;;;;5052511;28;20299;-78
2022/12/28 08:48:43;;;;;;;4.18;3.03;;;7.50;99.90;;;;;;5052064;28;20248;-76
2022/12/28 08:51:16;;;;;;;3.47;3.13;;;7.50;99.90;;;;;;5051566;28;20225;-76
2022/12/28 08:53:49;;;;;;;4.13;2.50;;;7.60;99.90;;;;;;5052126;28;20224;-76
2022/12/28 08:56:23;;;;;;;3.78;2.70;;;7.60;99.90;;;;;;5052477;28;20306;-76
2022/12/28 08:58:52;;;;;;;3.97;2.97;;;7.60;99.90;;;;;;5051982;28;20232;-76
2022/12/28 09:01:20;;;;;;;2.97;2.78;;;7.60;99.90;;;;;;5052334;28;20307;-76
2022/12/28 09:03:49;;;;;;;3.70;2.40;;;7.60;99.90;;;;;;5051685;28;20240;-76
2022/12/28 09:06:18;;;;;;;5.93;4.47;;;7.70;99.90;;;;;;5052015;28;20316;-76
2022/12/28 09:08:45;;;;;;;11.48;5.97;;;7.70;99.90;;;;;;5051998;28;20682;-76
2022/12/28 09:11:14;;;;;;;9.90;8.23;;;7.70;99.90;;;;;;5042775;28;20228;-76
2022/12/28 09:13:42;;;;;;;3.17;2.13;;;7.70;99.90;;;;;;5051586;28;20259;-76
2022/12/28 09:16:11;;;;;;;7.50;2.75;;;7.70;99.90;;;;;;5051920;28;20229;-76
2022/12/28 09:18:39;;;;;;;4.97;3.00;;;7.70;99.90;;;;;;5051971;28;20240;-77
2022/12/28 09:21:07;;;;;;;3.10;2.80;;;7.70;99.90;;;;;;5052894;28;20283;-77
2022/12/28 09:23:38;;;;;;;2.83;2.55;;;7.70;99.90;;;;;;5043854;28;20616;-77
2022/12/28 09:26:09;;;;;;;5.00;2.20;;;7.80;99.90;;;;;;5052023;28;20224;-76
2022/12/28 09:28:36;;;;;;;4.75;2.58;;;7.80;99.90;;;;;;5052819;28;20294;-75
2022/12/28 09:31:06;;;;;;;5.80;2.83;;;7.90;99.90;;;;;;5051156;28;20332;-76
2022/12/28 09:36:21;;;;;;;3.40;2.05;;;8.00;99.90;;;;;;5053558;28;20332;-75
2022/12/28 09:38:50;;;;;;;7.22;2.70;;;8.00;99.90;;;;;;5051922;28;20228;-76
2022/12/28 09:41:26;;;;;;;2.63;1.98;;;8.00;99.90;;;;;;5056520;28;20279;-76
2022/12/28 09:44:00;;;;;;;3.83;2.50;;;7.90;99.90;;;;;;5033061;28;20339;-76
2022/12/28 09:46:32;;;;;;;4.28;2.90;;;8.00;99.90;;;;;;5042480;28;20286;-76
2022/12/28 09:49:02;;;;;;;3.88;2.63;;;8.10;99.90;;;;;;5052865;28;20733;-77
2022/12/28 09:51:34;;;;;;;2.78;2.58;;;8.10;99.90;;;;;;5056474;28;20235;-76
2022/12/28 09:54:03;;;;;;;3.00;2.22;;;8.10;99.90;;;;;;5045007;28;20240;-77
2022/12/28 09:56:37;;;;;;;4.72;2.60;;;8.10;99.90;;;;;;5054819;28;20559;-79
2022/12/28 09:59:12;;;;;;;2.10;2.00;;;8.00;99.90;;;;;;5055365;28;20306;-77
2022/12/28 10:01:43;;;;;;;2.50;2.30;;;8.10;99.90;;;;;;5055881;28;20595;-77
2022/12/28 10:04:13;;;;;;;3.03;2.40;;;8.20;99.90;;;;;;5055399;28;20322;-78
2022/12/28 10:06:41;;;;;;;2.72;2.45;;;8.20;99.90;;;;;;5056201;28;20646;-78
2022/12/28 10:09:14;;;;;;;6.45;2.70;;;8.20;99.90;;;;;;5055093;28;20228;-77
2022/12/28 10:11:43;;;;;;;10.55;6.85;;;8.30;99.90;;;;;;5056304;28;20788;-76
2022/12/28 10:14:18;;;;;;;4.97;3.30;;;8.30;99.90;;;;;;5070730;28;20285;-76
2022/12/28 10:16:47;;;;;;;4.13;3.22;;;8.30;99.90;;;;;;5044797;28;20220;-76
2022/12/28 10:19:20;;;;;;;6.18;2.47;;;8.30;99.90;;;;;;5052329;28;20228;-76
2022/12/28 10:21:48;;;;;;;4.43;2.90;;;8.30;99.90;;;;;;5055772;28;20658;-77
2022/12/28 10:24:26;;;;;;;2.70;2.40;;;8.40;99.90;;;;;;5053446;28;20304;-76
2022/12/28 10:26:57;;;;;;;4.78;2.17;;;8.40;99.90;;;;;;5054269;28;20221;-77
2022/12/28 10:29:29;;;;;;;2.97;2.20;;;8.40;99.90;;;;;;5073892;28;20238;-78
2022/12/28 10:32:00;;;;;;;5.05;2.85;;;8.40;99.90;;;;;;5074399;28;20234;-78
2022/12/28 10:34:33;;;;;;;3.65;2.60;;;8.50;99.90;;;;;;5075120;28;20248;-76
2022/12/28 10:37:08;;;;;;;4.10;2.55;;;8.50;99.90;;;;;;5074391;28;20269;-76
2022/12/28 10:39:37;;;;;;;4.82;2.95;;;8.50;99.90;;;;;;5074022;28;20626;-78
2022/12/28 10:42:04;;;;;;;6.70;5.15;;;8.60;99.90;;;;;;5073521;28;20231;-78
2022/12/28 10:44:34;;;;;;;17.10;11.55;;;8.60;99.90;;;;;;5074642;28;20692;-78
2022/12/28 10:47:04;;;;;;;16.95;9.68;;;8.60;99.90;;;;;;5073977;28;20216;-78
2022/12/28 10:49:34;;;;;;;3.72;3.42;;;8.60;99.90;;;;;;5072712;28;20724;-78
2022/12/28 10:52:08;;;;;;;2.80;2.60;;;8.70;99.90;;;;;;5073954;28;20285;-77
2022/12/28 10:54:37;;;;;;;3.03;2.70;;;8.70;99.90;;;;;;5074159;28;20741;-77
2022/12/28 10:57:21;;;;;;;3.47;2.30;;;8.70;99.90;;;;;;5072972;28;20630;-77
2022/12/28 10:59:50;;;;;;;2.97;2.78;;;8.80;99.90;;;;;;5074213;28;20227;-77
2022/12/28 11:02:28;;;;;;;2.40;2.20;;;8.70;99.90;;;;;;5073289;28;20311;-77
2022/12/28 11:04:58;;;;;;;2.90;2.70;;;8.70;99.90;;;;;;5077559;28;20219;-77
2022/12/28 11:07:31;;;;;;;3.55;2.90;;;8.80;99.90;;;;;;5077112;28;20219;-77
2022/12/28 11:10:29;;;;;;;2.95;2.50;;;8.80;99.90;;;;;;5076800;28;20309;-78
2022/12/28 11:12:57;;;;;;;3.60;3.05;;;8.90;99.90;;;;;;5075492;28;20216;-77
2022/12/28 11:15:27;;;;;;;4.00;2.50;;;9.00;99.90;;;;;;5068460;28;20229;-78
2022/12/28 11:17:59;;;;;;;2.22;2.03;;;9.10;99.90;;;;;;5052997;28;20224;-78
2022/12/28 11:20:33;;;;;;;3.55;2.80;;;9.10;99.90;;;;;;5054825;28;20228;-76
2022/12/28 11:23:01;;;;;;;5.30;2.47;;;9.10;99.90;;;;;;5055845;28;20224;-77
2022/12/28 11:25:33;;;;;;;2.88;2.58;;;9.10;99.90;;;;;;5054977;28;20663;-77
2022/12/28 11:28:12;;;;;;;2.95;2.30;;;9.10;99.90;;;;;;5054817;28;20299;-77
2022/12/28 11:30:41;;;;;;;2.90;2.65;;;9.20;99.90;;;;;;5054648;28;20769;-77
2022/12/28 11:33:25;;;;;;;2.30;2.10;;;9.20;99.90;;;;;;5055048;28;20236;-77
2022/12/28 11:35:54;;;;;;;2.35;2.20;;;9.20;99.90;;;;;;5045740;28;20346;-77
2022/12/28 11:38:39;;;;;;;3.08;2.60;;;9.20;99.90;;;;;;5054243;28;20296;-77
2022/12/28 11:41:11;;;;;;;3.35;3.05;;;9.30;99.90;;;;;;5054314;28;20685;-77
2022/12/28 11:43:48;;;;;;;2.65;2.25;;;9.40;99.90;;;;;;5054730;28;20609;-77
2022/12/28 11:46:43;;;;;;;2.60;1.73;;;9.40;99.90;;;;;;5027695;28;20216;-77
2022/12/28 11:49:30;;;;;;;3.28;2.15;;;9.40;99.90;;;;;;5029784;28;20287;-77
2022/12/28 11:52:46;;;;;;;1.80;1.70;;;9.40;99.90;;;;;;5053409;28;20290;-77
2022/12/28 11:55:51;;;;;;;3.05;2.30;;;9.50;99.90;;;;;;5019741;28;20228;-77
2022/12/28 11:58:35;;;;;;;2.10;1.90;;;9.50;99.90;;;;;;5053973;28;20220;-77
2022/12/28 12:01:02;;;;;;;2.70;2.15;;;9.50;99.90;;;;;;5053397;28;20221;-76
2022/12/28 12:04:02;;;;;;;2.67;2.25;;;9.50;99.90;;;;;;5053643;28;20276;-76
2022/12/28 12:07:03;;;;;;;9.35;6.85;;;9.60;99.90;;;;;;5053464;28;20236;-77
2022/12/28 12:09:47;;;;;;;4.20;3.78;;;9.60;99.90;;;;;;5053776;28;20307;-76
2022/12/28 12:12:37;;;;;;;4.13;3.35;;;9.60;99.90;;;;;;5053700;28;20228;-78
2022/12/28 12:15:15;;;;;;;5.00;4.15;;;9.60;99.90;;;;;;5053911;28;20674;-76
2022/12/28 12:17:45;;;;;;;2.70;2.50;;;9.60;99.90;;;;;;5054095;28;20220;-77
2022/12/28 12:20:23;;;;;;;2.30;2.10;;;9.60;99.90;;;;;;5053541;28;20600;-78
2022/12/28 12:22:56;;;;;;;3.42;2.33;;;9.60;99.90;;;;;;5054076;28;20244;-77
2022/12/28 12:25:33;;;;;;;4.82;2.17;;;9.60;99.90;;;;;;5053266;28;20221;-77
2022/12/28 12:28:05;;;;;;;3.92;2.30;;;9.60;99.90;;;;;;5053280;28;20282;-77
2022/12/28 12:30:32;;;;;;;3.92;2.17;;;9.60;99.90;;;;;;5053229;28;20239;-77
2022/12/28 12:33:03;;;;;;;4.25;2.17;;;9.70;99.90;;;;;;5053709;28;20249;-78
2022/12/28 12:35:35;;;;;;;2.70;2.25;;;9.70;99.90;;;;;;5052506;28;20216;-77
2022/12/28 12:38:10;;;;;;;2.10;1.85;;;9.80;99.90;;;;;;5053267;28;20228;-77
2022/12/28 12:40:55;;;;;;;2.53;2.13;;;9.90;99.90;;;;;;5051971;28;20251;-78
2022/12/28 12:43:38;;;;;;;2.97;1.65;;;9.80;99.90;;;;;;5052096;28;20225;-77
2022/12/28 12:46:30;;;;;;;2.38;2.17;;;9.80;99.90;;;;;;5052846;28;20655;-76
2022/12/28 12:49:29;;;;;;;5.80;2.70;;;9.90;99.90;;;;;;5052113;28;20310;-76
2022/12/28 12:52:05;;;;;;;6.32;2.45;;;9.90;99.90;;;;;;5072130;28;20212;-76
2022/12/28 12:54:42;;;;;;;3.33;2.22;;;10.00;99.90;;;;;;5072555;28;20215;-76
2022/12/28 12:57:17;;;;;;;3.65;2.85;;;10.00;99.90;;;;;;5059364;28;20811;-77
2022/12/28 13:00:01;;;;;;;3.65;2.55;;;10.00;99.90;;;;;;5071861;28;20227;-78
2022/12/28 13:02:51;;;;;;;3.67;2.45;;;10.10;99.90;;;;;;5071465;28;20305;-78
2022/12/28 13:05:27;;;;;;;2.60;2.40;;;10.10;99.90;;;;;;5071642;28;20227;-78
2022/12/28 13:07:58;;;;;;;2.35;2.15;;;10.10;99.90;;;;;;5071726;28;20220;-78
2022/12/28 13:10:29;;;;;;;2.03;1.92;;;10.10;99.90;;;;;;5071952;28;20232;-76
2022/12/28 13:13:00;;;;;;;3.10;2.42;;;10.20;99.90;;;;;;5072770;28;20220;-77
2022/12/28 13:15:30;;;;;;;4.38;2.65;;;10.30;99.90;;;;;;5068717;28;20234;-78
2022/12/28 13:18:02;;;;;;;2.40;2.17;;;10.30;99.90;;;;;;5062707;28;20298;-76
2022/12/28 13:20:30;;;;;;;3.67;2.20;;;10.30;99.90;;;;;;5071514;28;20318;-76
2022/12/28 13:22:57;;;;;;;3.17;2.88;;;10.40;99.90;;;;;;5072134;28;20256;-77
2022/12/28 13:25:26;;;;;;;5.38;4.25;;;10.40;99.90;;;;;;5074697;28;20293;-77
2022/12/28 13:27:54;;;;;;;7.88;6.38;;;10.40;99.90;;;;;;5076098;28;20255;-76
2022/12/28 13:30:25;;;;;;;4.43;4.03;;;10.40;99.90;;;;;;5075088;28;20682;-77
2022/12/28 13:32:54;;;;;;;4.05;3.65;;;10.40;99.90;;;;;;5076105;28;20259;-78
2022/12/28 13:35:24;;;;;;;3.78;2.55;;;10.50;99.90;;;;;;5075040;28;20251;-78
2022/12/28 13:38:02;;;;;;;10.15;8.13;;;10.50;99.90;;;;;;5075395;28;20224;-78
2022/12/28 13:40:31;;;;;;;13.35;10.75;;;10.50;99.90;;;;;;5075235;28;20240;-78
2022/12/28 13:43:17;;;;;;;8.35;6.32;;;10.50;99.90;;;;;;5075765;28;20224;-78
2022/12/28 13:45:50;;;;;;;4.50;3.92;;;10.60;99.90;;;;;;5074176;28;20222;-78
2022/12/28 13:48:19;;;;;;;2.40;2.20;;;10.60;99.90;;;;;;5075768;28;20308;-78
2022/12/28 13:50:48;;;;;;;3.55;2.40;;;10.60;99.90;;;;;;5075145;28;20549;-76